sensor_id;sensor_type;location;lat;lon;timestamp;P1;durP1;ratioP1;P2;durP2;ratioP2
60700;SDS011;46541;49.894;10.886;2023-08-07T00:02:00;0.10;;;0.10;;
60700;SDS011;46541;49.894;10.886;2023-08-07T00:04:27;0.52;;;0.43;;
60700;SDS011;46541;49.894;10.886;2023-08-07T00:06:54;2.55;;;0.50;;
60700;SDS011;46541;49.894;10.886;2023-08-07T00:09:21;0.50;;;0.40;;
60700;SDS011;46541;49.894;10.886;2023-08-07T00:11:48;1.35;;;0.20;;
60700;SDS011;46541;49.894;10.886;2023-08-07T00:14:15;0.00;;;0.00;;
60700;SDS011;46541;49.894;10.886;2023-08-07T00:16:42;0.60;;;0.10;;
60700;SDS011;46541;49.894;10.886;2023-08-07T00:19:09;0.30;;;0.20;;
60700;SDS011;46541;49.894;10.886;2023-08-07T00:21:36;0.03;;;0.03;;
60700;SDS011;46541;49.894;10.886;2023-08-07T00:24:04;0.10;;;0.10;;
60700;SDS011;46541;49.894;10.886;2023-08-07T00:26:31;0.10;;;0.10;;
60700;SDS011;46541;49.894;10.886;2023-08-07T00:28:58;0.10;;;0.10;;
60700;SDS011;46541;49.894;10.886;2023-08-07T00:31:25;0.38;;;0.10;;
60700;SDS011;46541;49.894;10.886;2023-08-07T00:33:52;0.10;;;0.10;;
60700;SDS011;46541;49.894;10.886;2023-08-07T00:36:20;0.10;;;0.10;;
60700;SDS011;46541;49.894;10.886;2023-08-07T00:38:47;0.90;;;0.08;;
60700;SDS011;46541;49.894;10.886;2023-08-07T00:41:16;0.13;;;0.13;;
60700;SDS011;46541;49.894;10.886;2023-08-07T00:43:44;0.82;;;0.10;;
60700;SDS011;46541;49.894;10.886;2023-08-07T00:46:10;0.93;;;0.17;;
60700;SDS011;46541;49.894;10.886;2023-08-07T00:48:38;0.20;;;0.20;;
60700;SDS011;46541;49.894;10.886;2023-08-07T00:51:05;0.10;;;0.10;;
60700;SDS011;46541;49.894;10.886;2023-08-07T00:53:37;0.75;;;0.15;;
60700;SDS011;46541;49.894;10.886;2023-08-07T00:56:04;1.55;;;0.28;;
60700;SDS011;46541;49.894;10.886;2023-08-07T00:58:32;0.55;;;0.20;;
60700;SDS011;46541;49.894;10.886;2023-08-07T01:00:59;2.45;;;0.20;;
60700;SDS011;46541;49.894;10.886;2023-08-07T01:03:27;0.77;;;0.22;;
60700;SDS011;46541;49.894;10.886;2023-08-07T01:05:53;0.30;;;0.30;;
60700;SDS011;46541;49.894;10.886;2023-08-07T01:08:20;0.30;;;0.20;;
60700;SDS011;46541;49.894;10.886;2023-08-07T01:13:24;0.20;;;0.20;;
60700;SDS011;46541;49.894;10.886;2023-08-07T01:15:59;0.30;;;0.30;;
60700;SDS011;46541;49.894;10.886;2023-08-07T01:18:29;1.20;;;0.40;;
60700;SDS011;46541;49.894;10.886;2023-08-07T01:20:57;0.32;;;0.32;;
60700;SDS011;46541;49.894;10.886;2023-08-07T01:23:24;1.75;;;0.57;;
60700;SDS011;46541;49.894;10.886;2023-08-07T01:25:51;0.47;;;0.30;;
60700;SDS011;46541;49.894;10.886;2023-08-07T01:28:28;0.75;;;0.50;;
60700;SDS011;46541;49.894;10.886;2023-08-07T01:31:05;2.03;;;0.47;;
60700;SDS011;46541;49.894;10.886;2023-08-07T01:33:57;0.63;;;0.52;;
60700;SDS011;46541;49.894;10.886;2023-08-07T01:36:27;0.95;;;0.40;;
60700;SDS011;46541;49.894;10.886;2023-08-07T01:38:56;0.85;;;0.40;;
60700;SDS011;46541;49.894;10.886;2023-08-07T01:41:25;0.50;;;0.50;;
60700;SDS011;46541;49.894;10.886;2023-08-07T01:43:53;0.50;;;0.50;;
60700;SDS011;46541;49.894;10.886;2023-08-07T01:46:21;0.82;;;0.50;;
60700;SDS011;46541;49.894;10.886;2023-08-07T01:48:47;1.25;;;0.60;;
60700;SDS011;46541;49.894;10.886;2023-08-07T01:51:14;0.57;;;0.57;;
60700;SDS011;46541;49.894;10.886;2023-08-07T01:53:41;2.25;;;0.47;;
60700;SDS011;46541;49.894;10.886;2023-08-07T01:56:08;0.50;;;0.50;;
60700;SDS011;46541;49.894;10.886;2023-08-07T01:58:35;1.65;;;0.52;;
60700;SDS011;46541;49.894;10.886;2023-08-07T02:01:01;2.13;;;0.50;;
60700;SDS011;46541;49.894;10.886;2023-08-07T02:03:28;1.10;;;0.50;;
60700;SDS011;46541;49.894;10.886;2023-08-07T02:05:55;0.52;;;0.50;;
60700;SDS011;46541;49.894;10.886;2023-08-07T02:08:22;0.60;;;0.57;;
60700;SDS011;46541;49.894;10.886;2023-08-07T02:10:48;0.50;;;0.50;;
60700;SDS011;46541;49.894;10.886;2023-08-07T02:13:15;1.30;;;0.50;;
60700;SDS011;46541;49.894;10.886;2023-08-07T02:15:42;0.38;;;0.38;;
60700;SDS011;46541;49.894;10.886;2023-08-07T02:18:08;0.50;;;0.50;;
60700;SDS011;46541;49.894;10.886;2023-08-07T02:20:35;0.60;;;0.60;;
60700;SDS011;46541;49.894;10.886;2023-08-07T02:23:02;3.13;;;0.47;;
60700;SDS011;46541;49.894;10.886;2023-08-07T02:25:29;1.15;;;0.30;;
60700;SDS011;46541;49.894;10.886;2023-08-07T02:27:55;2.30;;;0.28;;
60700;SDS011;46541;49.894;10.886;2023-08-07T02:30:22;0.70;;;0.30;;
60700;SDS011;46541;49.894;10.886;2023-08-07T02:32:49;0.45;;;0.30;;
60700;SDS011;46541;49.894;10.886;2023-08-07T02:35:16;0.43;;;0.30;;
60700;SDS011;46541;49.894;10.886;2023-08-07T02:37:42;0.80;;;0.40;;
60700;SDS011;46541;49.894;10.886;2023-08-07T02:40:09;0.40;;;0.40;;
60700;SDS011;46541;49.894;10.886;2023-08-07T02:42:37;2.80;;;0.30;;
60700;SDS011;46541;49.894;10.886;2023-08-07T02:45:04;0.30;;;0.30;;
60700;SDS011;46541;49.894;10.886;2023-08-07T02:47:31;0.40;;;0.40;;
60700;SDS011;46541;49.894;10.886;2023-08-07T02:49:58;2.53;;;0.30;;
60700;SDS011;46541;49.894;10.886;2023-08-07T02:52:25;0.35;;;0.30;;
60700;SDS011;46541;49.894;10.886;2023-08-07T02:54:52;0.15;;;0.10;;
60700;SDS011;46541;49.894;10.886;2023-08-07T02:57:19;0.70;;;0.50;;
60700;SDS011;46541;49.894;10.886;2023-08-07T02:59:46;2.58;;;0.32;;
60700;SDS011;46541;49.894;10.886;2023-08-07T03:02:13;1.17;;;0.30;;
60700;SDS011;46541;49.894;10.886;2023-08-07T03:04:39;2.38;;;0.22;;
60700;SDS011;46541;49.894;10.886;2023-08-07T03:07:06;1.38;;;0.40;;
60700;SDS011;46541;49.894;10.886;2023-08-07T03:09:33;0.45;;;0.22;;
60700;SDS011;46541;49.894;10.886;2023-08-07T03:12:00;0.22;;;0.22;;
60700;SDS011;46541;49.894;10.886;2023-08-07T03:14:30;0.77;;;0.32;;
60700;SDS011;46541;49.894;10.886;2023-08-07T03:16:57;0.40;;;0.22;;
60700;SDS011;46541;49.894;10.886;2023-08-07T03:19:24;1.02;;;0.20;;
60700;SDS011;46541;49.894;10.886;2023-08-07T03:21:51;1.10;;;0.22;;
60700;SDS011;46541;49.894;10.886;2023-08-07T03:24:17;0.17;;;0.17;;
60700;SDS011;46541;49.894;10.886;2023-08-07T03:26:44;0.50;;;0.25;;
60700;SDS011;46541;49.894;10.886;2023-08-07T03:29:13;0.32;;;0.20;;
60700;SDS011;46541;49.894;10.886;2023-08-07T03:31:40;1.13;;;0.40;;
60700;SDS011;46541;49.894;10.886;2023-08-07T03:34:07;3.03;;;0.77;;
60700;SDS011;46541;49.894;10.886;2023-08-07T03:36:34;2.75;;;0.30;;
60700;SDS011;46541;49.894;10.886;2023-08-07T03:39:00;0.80;;;0.22;;
60700;SDS011;46541;49.894;10.886;2023-08-07T03:41:27;0.32;;;0.22;;
60700;SDS011;46541;49.894;10.886;2023-08-07T03:43:54;0.93;;;0.32;;
60700;SDS011;46541;49.894;10.886;2023-08-07T03:46:21;1.05;;;0.30;;
60700;SDS011;46541;49.894;10.886;2023-08-07T03:48:47;3.15;;;0.30;;
60700;SDS011;46541;49.894;10.886;2023-08-07T03:51:14;0.38;;;0.20;;
60700;SDS011;46541;49.894;10.886;2023-08-07T03:53:42;2.47;;;0.30;;
60700;SDS011;46541;49.894;10.886;2023-08-07T03:56:09;0.57;;;0.43;;
60700;SDS011;46541;49.894;10.886;2023-08-07T03:58:36;0.80;;;0.20;;
60700;SDS011;46541;49.894;10.886;2023-08-07T04:01:03;0.50;;;0.30;;
60700;SDS011;46541;49.894;10.886;2023-08-07T04:03:30;0.82;;;0.30;;
60700;SDS011;46541;49.894;10.886;2023-08-07T04:05:57;1.75;;;0.73;;
60700;SDS011;46541;49.894;10.886;2023-08-07T04:08:23;0.75;;;0.28;;
60700;SDS011;46541;49.894;10.886;2023-08-07T04:10:57;1.08;;;0.50;;
60700;SDS011;46541;49.894;10.886;2023-08-07T04:13:28;0.90;;;0.25;;
60700;SDS011;46541;49.894;10.886;2023-08-07T04:15:56;0.47;;;0.20;;
60700;SDS011;46541;49.894;10.886;2023-08-07T04:18:23;0.93;;;0.47;;
60700;SDS011;46541;49.894;10.886;2023-08-07T04:20:51;0.65;;;0.40;;
60700;SDS011;46541;49.894;10.886;2023-08-07T04:23:19;0.28;;;0.28;;
60700;SDS011;46541;49.894;10.886;2023-08-07T04:25:47;2.60;;;0.40;;
60700;SDS011;46541;49.894;10.886;2023-08-07T04:28:14;0.52;;;0.40;;
60700;SDS011;46541;49.894;10.886;2023-08-07T04:30:42;1.73;;;0.40;;
60700;SDS011;46541;49.894;10.886;2023-08-07T04:33:10;1.88;;;0.40;;
60700;SDS011;46541;49.894;10.886;2023-08-07T04:35:36;1.35;;;0.60;;
60700;SDS011;46541;49.894;10.886;2023-08-07T04:38:03;1.00;;;0.50;;
60700;SDS011;46541;49.894;10.886;2023-08-07T04:40:30;1.85;;;1.00;;
60700;SDS011;46541;49.894;10.886;2023-08-07T04:42:57;1.23;;;0.70;;
60700;SDS011;46541;49.894;10.886;2023-08-07T04:45:24;0.93;;;0.50;;
60700;SDS011;46541;49.894;10.886;2023-08-07T04:47:50;1.17;;;0.38;;
60700;SDS011;46541;49.894;10.886;2023-08-07T04:50:17;1.05;;;0.55;;
60700;SDS011;46541;49.894;10.886;2023-08-07T04:52:44;2.42;;;0.90;;
60700;SDS011;46541;49.894;10.886;2023-08-07T04:55:11;2.55;;;1.23;;
60700;SDS011;46541;49.894;10.886;2023-08-07T04:57:38;2.35;;;0.85;;
60700;SDS011;46541;49.894;10.886;2023-08-07T05:00:05;1.73;;;0.60;;
60700;SDS011;46541;49.894;10.886;2023-08-07T05:02:32;1.08;;;0.70;;
60700;SDS011;46541;49.894;10.886;2023-08-07T05:04:59;2.03;;;0.70;;
60700;SDS011;46541;49.894;10.886;2023-08-07T05:07:26;4.00;;;0.85;;
60700;SDS011;46541;49.894;10.886;2023-08-07T05:09:53;1.90;;;0.70;;
60700;SDS011;46541;49.894;10.886;2023-08-07T05:12:19;2.30;;;0.82;;
60700;SDS011;46541;49.894;10.886;2023-08-07T05:14:46;0.77;;;0.65;;
60700;SDS011;46541;49.894;10.886;2023-08-07T05:17:13;1.75;;;0.70;;
60700;SDS011;46541;49.894;10.886;2023-08-07T05:19:40;5.07;;;1.30;;
60700;SDS011;46541;49.894;10.886;2023-08-07T05:22:06;1.75;;;0.93;;
60700;SDS011;46541;49.894;10.886;2023-08-07T05:24:33;3.75;;;1.33;;
60700;SDS011;46541;49.894;10.886;2023-08-07T05:27:05;0.88;;;0.70;;
60700;SDS011;46541;49.894;10.886;2023-08-07T05:29:34;2.05;;;1.17;;
60700;SDS011;46541;49.894;10.886;2023-08-07T05:32:10;2.60;;;1.13;;
60700;SDS011;46541;49.894;10.886;2023-08-07T05:34:37;1.88;;;1.10;;
60700;SDS011;46541;49.894;10.886;2023-08-07T05:37:04;3.67;;;0.80;;
60700;SDS011;46541;49.894;10.886;2023-08-07T05:39:32;2.22;;;0.90;;
60700;SDS011;46541;49.894;10.886;2023-08-07T05:42:00;2.85;;;0.90;;
60700;SDS011;46541;49.894;10.886;2023-08-07T05:44:28;1.13;;;0.85;;
60700;SDS011;46541;49.894;10.886;2023-08-07T05:46:55;3.63;;;0.90;;
60700;SDS011;46541;49.894;10.886;2023-08-07T05:49:22;2.05;;;0.73;;
60700;SDS011;46541;49.894;10.886;2023-08-07T05:51:51;1.48;;;0.80;;
60700;SDS011;46541;49.894;10.886;2023-08-07T05:54:19;3.58;;;0.95;;
60700;SDS011;46541;49.894;10.886;2023-08-07T05:56:46;3.40;;;1.00;;
60700;SDS011;46541;49.894;10.886;2023-08-07T05:59:13;1.67;;;0.80;;
60700;SDS011;46541;49.894;10.886;2023-08-07T06:01:40;1.85;;;0.88;;
60700;SDS011;46541;49.894;10.886;2023-08-07T06:04:07;2.88;;;0.93;;
60700;SDS011;46541;49.894;10.886;2023-08-07T06:06:35;1.75;;;0.70;;
60700;SDS011;46541;49.894;10.886;2023-08-07T06:09:02;1.40;;;0.95;;
60700;SDS011;46541;49.894;10.886;2023-08-07T06:11:30;2.17;;;0.90;;
60700;SDS011;46541;49.894;10.886;2023-08-07T06:13:57;3.80;;;1.20;;
60700;SDS011;46541;49.894;10.886;2023-08-07T06:16:24;2.70;;;1.02;;
60700;SDS011;46541;49.894;10.886;2023-08-07T06:18:51;1.75;;;0.90;;
60700;SDS011;46541;49.894;10.886;2023-08-07T06:21:18;1.98;;;0.65;;
60700;SDS011;46541;49.894;10.886;2023-08-07T06:23:46;4.85;;;0.90;;
60700;SDS011;46541;49.894;10.886;2023-08-07T06:26:13;1.58;;;0.90;;
60700;SDS011;46541;49.894;10.886;2023-08-07T06:28:40;2.28;;;0.90;;
60700;SDS011;46541;49.894;10.886;2023-08-07T06:31:09;2.15;;;0.88;;
60700;SDS011;46541;49.894;10.886;2023-08-07T06:33:37;2.78;;;1.10;;
60700;SDS011;46541;49.894;10.886;2023-08-07T06:36:04;2.47;;;1.08;;
60700;SDS011;46541;49.894;10.886;2023-08-07T06:38:33;3.67;;;0.80;;
60700;SDS011;46541;49.894;10.886;2023-08-07T06:41:00;4.10;;;1.25;;
60700;SDS011;46541;49.894;10.886;2023-08-07T06:43:27;3.47;;;0.90;;
60700;SDS011;46541;49.894;10.886;2023-08-07T06:45:54;1.08;;;0.80;;
60700;SDS011;46541;49.894;10.886;2023-08-07T06:48:22;2.38;;;1.00;;
60700;SDS011;46541;49.894;10.886;2023-08-07T06:50:49;1.90;;;0.80;;
60700;SDS011;46541;49.894;10.886;2023-08-07T06:53:17;1.08;;;0.82;;
60700;SDS011;46541;49.894;10.886;2023-08-07T06:55:45;4.75;;;1.33;;
60700;SDS011;46541;49.894;10.886;2023-08-07T06:58:12;5.30;;;1.58;;
60700;SDS011;46541;49.894;10.886;2023-08-07T07:00:39;2.97;;;1.23;;
60700;SDS011;46541;49.894;10.886;2023-08-07T07:03:05;2.78;;;1.30;;
60700;SDS011;46541;49.894;10.886;2023-08-07T07:05:33;1.63;;;0.93;;
60700;SDS011;46541;49.894;10.886;2023-08-07T07:08:00;3.33;;;1.25;;
60700;SDS011;46541;49.894;10.886;2023-08-07T07:10:27;4.88;;;1.00;;
60700;SDS011;46541;49.894;10.886;2023-08-07T07:12:54;3.45;;;1.50;;
60700;SDS011;46541;49.894;10.886;2023-08-07T07:15:21;4.53;;;1.20;;
60700;SDS011;46541;49.894;10.886;2023-08-07T07:17:48;8.05;;;1.52;;
60700;SDS011;46541;49.894;10.886;2023-08-07T07:20:15;3.42;;;1.25;;
60700;SDS011;46541;49.894;10.886;2023-08-07T07:22:42;1.38;;;0.88;;
60700;SDS011;46541;49.894;10.886;2023-08-07T07:25:09;2.85;;;1.20;;
60700;SDS011;46541;49.894;10.886;2023-08-07T07:27:36;1.27;;;0.82;;
60700;SDS011;46541;49.894;10.886;2023-08-07T07:30:02;5.50;;;1.55;;
60700;SDS011;46541;49.894;10.886;2023-08-07T07:32:30;2.55;;;1.02;;
60700;SDS011;46541;49.894;10.886;2023-08-07T07:34:56;3.53;;;1.30;;
60700;SDS011;46541;49.894;10.886;2023-08-07T07:37:24;2.78;;;1.10;;
60700;SDS011;46541;49.894;10.886;2023-08-07T07:39:51;1.80;;;1.10;;
60700;SDS011;46541;49.894;10.886;2023-08-07T07:42:18;1.80;;;1.00;;
60700;SDS011;46541;49.894;10.886;2023-08-07T07:44:44;1.85;;;1.13;;
60700;SDS011;46541;49.894;10.886;2023-08-07T07:47:11;2.33;;;0.80;;
60700;SDS011;46541;49.894;10.886;2023-08-07T07:49:43;3.83;;;1.42;;
60700;SDS011;46541;49.894;10.886;2023-08-07T07:52:11;3.15;;;1.25;;
60700;SDS011;46541;49.894;10.886;2023-08-07T07:54:38;2.28;;;1.02;;
60700;SDS011;46541;49.894;10.886;2023-08-07T07:57:05;3.63;;;1.00;;
60700;SDS011;46541;49.894;10.886;2023-08-07T07:59:32;3.33;;;1.40;;
60700;SDS011;46541;49.894;10.886;2023-08-07T08:01:59;6.55;;;2.25;;
60700;SDS011;46541;49.894;10.886;2023-08-07T08:04:26;2.25;;;1.02;;
60700;SDS011;46541;49.894;10.886;2023-08-07T08:06:54;1.55;;;0.82;;
60700;SDS011;46541;49.894;10.886;2023-08-07T08:09:23;1.60;;;0.90;;
60700;SDS011;46541;49.894;10.886;2023-08-07T08:11:50;3.33;;;1.15;;
60700;SDS011;46541;49.894;10.886;2023-08-07T08:14:17;4.13;;;1.63;;
60700;SDS011;46541;49.894;10.886;2023-08-07T08:16:44;4.07;;;1.20;;
60700;SDS011;46541;49.894;10.886;2023-08-07T08:19:11;2.15;;;1.15;;
60700;SDS011;46541;49.894;10.886;2023-08-07T08:21:38;3.65;;;1.15;;
60700;SDS011;46541;49.894;10.886;2023-08-07T08:24:06;1.35;;;0.85;;
60700;SDS011;46541;49.894;10.886;2023-08-07T08:26:33;4.10;;;1.42;;
60700;SDS011;46541;49.894;10.886;2023-08-07T08:29:00;2.42;;;1.17;;
60700;SDS011;46541;49.894;10.886;2023-08-07T08:31:27;5.20;;;1.20;;
60700;SDS011;46541;49.894;10.886;2023-08-07T08:33:54;3.45;;;1.17;;
60700;SDS011;46541;49.894;10.886;2023-08-07T08:36:21;5.28;;;1.10;;
60700;SDS011;46541;49.894;10.886;2023-08-07T08:38:48;5.03;;;1.52;;
60700;SDS011;46541;49.894;10.886;2023-08-07T08:41:15;3.38;;;1.20;;
60700;SDS011;46541;49.894;10.886;2023-08-07T08:43:42;4.25;;;1.17;;
60700;SDS011;46541;49.894;10.886;2023-08-07T08:46:14;4.95;;;1.92;;
60700;SDS011;46541;49.894;10.886;2023-08-07T08:48:43;1.15;;;0.88;;
60700;SDS011;46541;49.894;10.886;2023-08-07T08:51:15;3.38;;;1.63;;
60700;SDS011;46541;49.894;10.886;2023-08-07T08:53:45;2.72;;;1.20;;
60700;SDS011;46541;49.894;10.886;2023-08-07T08:56:13;3.35;;;1.40;;
60700;SDS011;46541;49.894;10.886;2023-08-07T08:58:40;5.22;;;2.47;;
60700;SDS011;46541;49.894;10.886;2023-08-07T09:01:07;1.92;;;1.08;;
60700;SDS011;46541;49.894;10.886;2023-08-07T09:03:35;2.05;;;1.10;;
60700;SDS011;46541;49.894;10.886;2023-08-07T09:06:02;4.60;;;1.20;;
60700;SDS011;46541;49.894;10.886;2023-08-07T09:08:31;2.70;;;1.40;;
60700;SDS011;46541;49.894;10.886;2023-08-07T09:11:00;4.28;;;1.30;;
60700;SDS011;46541;49.894;10.886;2023-08-07T09:13:28;2.15;;;1.25;;
60700;SDS011;46541;49.894;10.886;2023-08-07T09:15:58;3.90;;;2.03;;
60700;SDS011;46541;49.894;10.886;2023-08-07T09:18:27;4.38;;;1.88;;
60700;SDS011;46541;49.894;10.886;2023-08-07T09:20:54;4.88;;;1.42;;
60700;SDS011;46541;49.894;10.886;2023-08-07T09:23:24;3.50;;;1.83;;
60700;SDS011;46541;49.894;10.886;2023-08-07T09:26:01;4.15;;;1.90;;
60700;SDS011;46541;49.894;10.886;2023-08-07T09:28:29;5.50;;;1.70;;
60700;SDS011;46541;49.894;10.886;2023-08-07T09:30:56;3.78;;;1.73;;
60700;SDS011;46541;49.894;10.886;2023-08-07T09:33:25;2.78;;;1.42;;
60700;SDS011;46541;49.894;10.886;2023-08-07T09:35:53;2.67;;;1.45;;
60700;SDS011;46541;49.894;10.886;2023-08-07T09:38:27;3.75;;;1.10;;
60700;SDS011;46541;49.894;10.886;2023-08-07T09:40:59;4.38;;;1.67;;
60700;SDS011;46541;49.894;10.886;2023-08-07T09:43:28;3.20;;;1.58;;
60700;SDS011;46541;49.894;10.886;2023-08-07T09:46:02;4.20;;;1.17;;
60700;SDS011;46541;49.894;10.886;2023-08-07T09:48:30;3.00;;;1.60;;
60700;SDS011;46541;49.894;10.886;2023-08-07T09:51:00;3.65;;;1.20;;
60700;SDS011;46541;49.894;10.886;2023-08-07T09:53:31;2.83;;;1.15;;
60700;SDS011;46541;49.894;10.886;2023-08-07T09:55:58;2.15;;;1.48;;
60700;SDS011;46541;49.894;10.886;2023-08-07T09:58:26;3.20;;;1.17;;
60700;SDS011;46541;49.894;10.886;2023-08-07T10:00:54;2.83;;;1.00;;
60700;SDS011;46541;49.894;10.886;2023-08-07T10:03:26;7.25;;;1.45;;
60700;SDS011;46541;49.894;10.886;2023-08-07T10:05:53;1.40;;;0.98;;
60700;SDS011;46541;49.894;10.886;2023-08-07T10:08:21;4.72;;;2.15;;
60700;SDS011;46541;49.894;10.886;2023-08-07T10:10:48;2.55;;;1.10;;
60700;SDS011;46541;49.894;10.886;2023-08-07T10:13:15;3.00;;;1.42;;
60700;SDS011;46541;49.894;10.886;2023-08-07T10:15:47;4.50;;;1.55;;
60700;SDS011;46541;49.894;10.886;2023-08-07T10:18:14;4.25;;;1.38;;
60700;SDS011;46541;49.894;10.886;2023-08-07T10:20:41;1.83;;;1.10;;
60700;SDS011;46541;49.894;10.886;2023-08-07T10:23:10;2.63;;;1.48;;
60700;SDS011;46541;49.894;10.886;2023-08-07T10:25:39;3.75;;;1.63;;
60700;SDS011;46541;49.894;10.886;2023-08-07T10:28:10;3.50;;;1.52;;
60700;SDS011;46541;49.894;10.886;2023-08-07T10:30:41;10.02;;;1.70;;
60700;SDS011;46541;49.894;10.886;2023-08-07T10:33:09;2.28;;;1.27;;
60700;SDS011;46541;49.894;10.886;2023-08-07T10:35:38;1.88;;;1.25;;
60700;SDS011;46541;49.894;10.886;2023-08-07T10:38:13;2.63;;;1.23;;
60700;SDS011;46541;49.894;10.886;2023-08-07T10:43:29;5.28;;;1.80;;
60700;SDS011;46541;49.894;10.886;2023-08-07T10:46:02;8.15;;;1.60;;
60700;SDS011;46541;49.894;10.886;2023-08-07T10:48:31;4.35;;;1.50;;
60700;SDS011;46541;49.894;10.886;2023-08-07T10:51:13;2.55;;;1.40;;
60700;SDS011;46541;49.894;10.886;2023-08-07T10:53:42;5.47;;;1.63;;
60700;SDS011;46541;49.894;10.886;2023-08-07T10:56:11;3.63;;;1.25;;
60700;SDS011;46541;49.894;10.886;2023-08-07T10:58:43;3.92;;;1.85;;
60700;SDS011;46541;49.894;10.886;2023-08-07T11:03:56;7.45;;;1.77;;
60700;SDS011;46541;49.894;10.886;2023-08-07T11:09:01;3.38;;;1.52;;
60700;SDS011;46541;49.894;10.886;2023-08-07T11:11:34;3.65;;;1.25;;
60700;SDS011;46541;49.894;10.886;2023-08-07T11:14:06;3.38;;;1.45;;
60700;SDS011;46541;49.894;10.886;2023-08-07T11:16:34;4.18;;;1.17;;
60700;SDS011;46541;49.894;10.886;2023-08-07T11:19:01;6.57;;;1.67;;
60700;SDS011;46541;49.894;10.886;2023-08-07T11:21:29;2.97;;;1.30;;
60700;SDS011;46541;49.894;10.886;2023-08-07T11:24:00;6.95;;;1.80;;
60700;SDS011;46541;49.894;10.886;2023-08-07T11:26:27;3.30;;;1.67;;
60700;SDS011;46541;49.894;10.886;2023-08-07T11:28:54;5.40;;;1.50;;
60700;SDS011;46541;49.894;10.886;2023-08-07T11:31:22;4.85;;;1.50;;
60700;SDS011;46541;49.894;10.886;2023-08-07T11:33:59;3.72;;;1.67;;
60700;SDS011;46541;49.894;10.886;2023-08-07T11:36:29;4.18;;;1.42;;
60700;SDS011;46541;49.894;10.886;2023-08-07T11:38:56;3.72;;;1.75;;
60700;SDS011;46541;49.894;10.886;2023-08-07T11:41:22;2.65;;;1.17;;
60700;SDS011;46541;49.894;10.886;2023-08-07T11:43:49;3.78;;;1.20;;
60700;SDS011;46541;49.894;10.886;2023-08-07T11:46:16;5.60;;;1.92;;
60700;SDS011;46541;49.894;10.886;2023-08-07T11:48:43;5.30;;;1.63;;
60700;SDS011;46541;49.894;10.886;2023-08-07T11:51:11;3.97;;;1.50;;
60700;SDS011;46541;49.894;10.886;2023-08-07T11:53:39;5.43;;;2.17;;
60700;SDS011;46541;49.894;10.886;2023-08-07T11:56:08;5.82;;;1.98;;
60700;SDS011;46541;49.894;10.886;2023-08-07T11:58:39;3.03;;;1.65;;
60700;SDS011;46541;49.894;10.886;2023-08-07T12:01:14;7.72;;;1.10;;
60700;SDS011;46541;49.894;10.886;2023-08-07T12:06:21;2.80;;;1.40;;
60700;SDS011;46541;49.894;10.886;2023-08-07T12:08:49;4.05;;;1.17;;
60700;SDS011;46541;49.894;10.886;2023-08-07T12:11:19;7.07;;;1.65;;
60700;SDS011;46541;49.894;10.886;2023-08-07T12:13:50;4.15;;;1.52;;
60700;SDS011;46541;49.894;10.886;2023-08-07T12:16:17;3.33;;;1.42;;
60700;SDS011;46541;49.894;10.886;2023-08-07T12:18:45;2.53;;;0.80;;
60700;SDS011;46541;49.894;10.886;2023-08-07T12:21:13;2.75;;;1.35;;
60700;SDS011;46541;49.894;10.886;2023-08-07T12:23:41;3.75;;;1.23;;
60700;SDS011;46541;49.894;10.886;2023-08-07T12:26:10;2.58;;;1.10;;
60700;SDS011;46541;49.894;10.886;2023-08-07T12:28:37;2.80;;;1.13;;
60700;SDS011;46541;49.894;10.886;2023-08-07T12:31:04;2.30;;;1.35;;
60700;SDS011;46541;49.894;10.886;2023-08-07T12:33:31;5.90;;;1.35;;
60700;SDS011;46541;49.894;10.886;2023-08-07T12:35:58;3.83;;;1.25;;
60700;SDS011;46541;49.894;10.886;2023-08-07T12:38:25;4.88;;;1.30;;
60700;SDS011;46541;49.894;10.886;2023-08-07T12:40:52;2.13;;;0.80;;
60700;SDS011;46541;49.894;10.886;2023-08-07T12:43:20;3.50;;;1.13;;
60700;SDS011;46541;49.894;10.886;2023-08-07T12:45:47;4.40;;;1.17;;
60700;SDS011;46541;49.894;10.886;2023-08-07T12:48:16;1.75;;;1.05;;
60700;SDS011;46541;49.894;10.886;2023-08-07T12:50:44;2.70;;;1.23;;
60700;SDS011;46541;49.894;10.886;2023-08-07T12:53:11;1.60;;;0.98;;
60700;SDS011;46541;49.894;10.886;2023-08-07T12:55:38;2.58;;;1.50;;
60700;SDS011;46541;49.894;10.886;2023-08-07T12:58:05;4.20;;;1.23;;
60700;SDS011;46541;49.894;10.886;2023-08-07T13:00:32;3.03;;;1.33;;
60700;SDS011;46541;49.894;10.886;2023-08-07T13:02:59;2.75;;;1.00;;
60700;SDS011;46541;49.894;10.886;2023-08-07T13:05:27;2.50;;;1.48;;
60700;SDS011;46541;49.894;10.886;2023-08-07T13:07:55;4.45;;;1.38;;
60700;SDS011;46541;49.894;10.886;2023-08-07T13:10:24;2.65;;;1.13;;
60700;SDS011;46541;49.894;10.886;2023-08-07T13:12:54;3.13;;;1.20;;
60700;SDS011;46541;49.894;10.886;2023-08-07T13:15:21;2.17;;;1.40;;
60700;SDS011;46541;49.894;10.886;2023-08-07T13:17:48;3.67;;;1.52;;
60700;SDS011;46541;49.894;10.886;2023-08-07T13:20:15;2.13;;;1.00;;
60700;SDS011;46541;49.894;10.886;2023-08-07T13:22:42;1.52;;;1.23;;
60700;SDS011;46541;49.894;10.886;2023-08-07T13:25:11;1.08;;;0.95;;
60700;SDS011;46541;49.894;10.886;2023-08-07T13:27:39;2.05;;;0.90;;
60700;SDS011;46541;49.894;10.886;2023-08-07T13:30:07;1.10;;;1.00;;
60700;SDS011;46541;49.894;10.886;2023-08-07T13:32:35;2.10;;;0.82;;
60700;SDS011;46541;49.894;10.886;2023-08-07T13:35:02;1.85;;;0.93;;
60700;SDS011;46541;49.894;10.886;2023-08-07T13:37:30;3.95;;;1.48;;
60700;SDS011;46541;49.894;10.886;2023-08-07T13:39:58;2.92;;;1.10;;
60700;SDS011;46541;49.894;10.886;2023-08-07T13:42:25;2.70;;;1.42;;
60700;SDS011;46541;49.894;10.886;2023-08-07T13:44:54;1.50;;;1.02;;
60700;SDS011;46541;49.894;10.886;2023-08-07T13:47:21;2.75;;;1.00;;
60700;SDS011;46541;49.894;10.886;2023-08-07T13:49:50;1.48;;;0.85;;
60700;SDS011;46541;49.894;10.886;2023-08-07T13:52:17;2.15;;;0.90;;
60700;SDS011;46541;49.894;10.886;2023-08-07T13:54:44;2.45;;;1.15;;
60700;SDS011;46541;49.894;10.886;2023-08-07T13:57:11;1.02;;;0.80;;
60700;SDS011;46541;49.894;10.886;2023-08-07T13:59:38;1.52;;;0.85;;
60700;SDS011;46541;49.894;10.886;2023-08-07T14:02:05;1.33;;;0.68;;
60700;SDS011;46541;49.894;10.886;2023-08-07T14:04:32;1.63;;;0.85;;
60700;SDS011;46541;49.894;10.886;2023-08-07T14:06:59;2.17;;;0.93;;
60700;SDS011;46541;49.894;10.886;2023-08-07T14:09:26;1.80;;;0.90;;
60700;SDS011;46541;49.894;10.886;2023-08-07T14:11:52;1.80;;;1.08;;
60700;SDS011;46541;49.894;10.886;2023-08-07T14:14:20;2.45;;;1.05;;
60700;SDS011;46541;49.894;10.886;2023-08-07T14:16:47;1.27;;;0.98;;
60700;SDS011;46541;49.894;10.886;2023-08-07T14:19:14;1.70;;;1.40;;
60700;SDS011;46541;49.894;10.886;2023-08-07T14:21:41;1.75;;;1.00;;
60700;SDS011;46541;49.894;10.886;2023-08-07T14:24:08;3.40;;;1.67;;
60700;SDS011;46541;49.894;10.886;2023-08-07T14:26:35;2.00;;;0.88;;
60700;SDS011;46541;49.894;10.886;2023-08-07T14:29:01;3.55;;;1.15;;
60700;SDS011;46541;49.894;10.886;2023-08-07T14:31:28;2.70;;;1.20;;
60700;SDS011;46541;49.894;10.886;2023-08-07T14:33:55;1.70;;;0.90;;
60700;SDS011;46541;49.894;10.886;2023-08-07T14:36:22;3.10;;;1.15;;
60700;SDS011;46541;49.894;10.886;2023-08-07T14:38:49;1.60;;;1.00;;
60700;SDS011;46541;49.894;10.886;2023-08-07T14:41:17;1.90;;;0.90;;
60700;SDS011;46541;49.894;10.886;2023-08-07T14:43:44;1.10;;;1.00;;
60700;SDS011;46541;49.894;10.886;2023-08-07T14:46:13;2.17;;;0.90;;
60700;SDS011;46541;49.894;10.886;2023-08-07T14:48:43;1.60;;;1.08;;
60700;SDS011;46541;49.894;10.886;2023-08-07T14:51:10;2.10;;;1.10;;